Main page
METAR-TAF:

METAR-TAF

Airports :

Khartoum International Airport

Khartoum, Sudan

latitude: 15-36N, longitude: 032-33E, elevation: 382 m

Current weather observation

The report was made 8 hours and 50 minutes ago, at 16:00 UTC
Wind 13 kt from the North
Temperature 37°C
Humidity 5%
Pressure 1007 hPa
Visibility: 6000 m

METAR: HSSS 101600Z 36013KT 6000 37/M08 Q1007 NOSIG

Time: 02:50 (00:50 UTC)


TAF: missing

Weather observations and forecasts of more than 4000 airports (METAR and TAF reports).

The available stations are represented by yellow and red dots on the map.

Hover mouse over dot to see the name of the station.

Then click to see weather observations and forecasts.

To change the map : click on the green buttons with a black cross to zoom in, on the green button with a dash to zoom out, or on the green arrows for adjacent maps.


METAR-TAF: